Time;durP1;ratioP1;P1;durP2;ratioP2;P2;SDS_P1;SDS_P2;PMS_P1;PMS_P2;Temp;Humidity;BMP_temperature;BMP_pressure;BME280_temperature;BME280_humidity;BME280_pressure;Samples;Min_cycle;Max_cycle;Signal;HPM_P1;HPM_P2
2023/07/13 00:02:08;;;;;;;8.27;4.95;;;24.70;95.70;;;;;;6273739;22;20019;-82
2023/07/13 00:04:36;;;;;;;10.20;5.40;;;24.80;94.90;;;;;;6274416;22;20470;-83
2023/07/13 00:07:03;;;;;;;6.38;5.20;;;24.70;94.20;;;;;;6272962;22;20062;-86
2023/07/13 00:09:30;;;;;;;10.40;4.88;;;24.80;94.00;;;;;;6273965;22;20055;-83
2023/07/13 00:11:57;;;;;;;8.02;4.43;;;24.80;93.50;;;;;;6273764;22;20027;-79
2023/07/13 00:14:27;;;;;;;10.63;3.75;;;24.80;93.70;;;;;;6246843;22;20031;-85
2023/07/13 00:16:55;;;;;;;8.93;4.20;;;24.80;95.40;;;;;;6272228;22;20107;-83
2023/07/13 00:19:23;;;;;;;9.25;4.10;;;24.80;96.00;;;;;;6273124;22;20019;-81
2023/07/13 00:21:50;;;;;;;9.02;2.70;;;24.80;96.20;;;;;;6272675;22;20644;-79
2023/07/13 00:24:23;;;;;;;9.52;2.50;;;24.80;96.10;;;;;;6272776;22;20089;-85
2023/07/13 00:26:51;;;;;;;6.32;2.10;;;24.70;96.40;;;;;;6248482;22;20028;-81
2023/07/13 00:29:21;;;;;;;13.85;2.85;;;24.70;96.40;;;;;;6273208;22;20027;-81
2023/07/13 00:31:48;;;;;;;4.22;2.42;;;24.70;96.70;;;;;;6273067;22;20034;-82
2023/07/13 00:34:16;;;;;;;3.83;1.63;;;24.70;96.60;;;;;;6247767;22;20736;-81
2023/07/13 00:36:43;;;;;;;3.55;2.22;;;24.70;95.70;;;;;;6249716;22;20023;-82
2023/07/13 00:39:10;;;;;;;5.32;1.58;;;24.70;95.70;;;;;;6275417;22;20466;-83
2023/07/13 00:41:38;;;;;;;4.07;1.65;;;24.80;95.30;;;;;;6249989;22;20223;-82
2023/07/13 00:44:05;;;;;;;9.50;1.73;;;24.80;94.90;;;;;;6274835;22;20020;-83
2023/07/13 00:46:35;;;;;;;4.43;2.15;;;25.00;94.80;;;;;;6250567;22;20019;-83
2023/07/13 00:49:06;;;;;;;5.78;2.00;;;25.00;94.60;;;;;;6250259;22;20863;-83
2023/07/13 00:51:40;;;;;;;4.13;1.95;;;25.00;94.20;;;;;;6275898;22;20466;-84
2023/07/13 00:54:11;;;;;;;5.40;2.40;;;25.00;93.60;;;;;;6226726;22;20070;-85
2023/07/13 00:56:40;;;;;;;4.00;1.88;;;25.00;93.40;;;;;;6249808;22;20026;-80
2023/07/13 00:59:11;;;;;;;6.22;1.80;;;24.90;93.50;;;;;;6225278;22;20444;-83
2023/07/13 01:01:39;;;;;;;6.03;2.28;;;24.90;93.50;;;;;;6275562;22;20020;-85
2023/07/13 01:04:07;;;;;;;5.32;2.03;;;24.90;93.60;;;;;;6227427;22;20018;-83
2023/07/13 01:06:37;;;;;;;5.10;1.98;;;24.90;93.70;;;;;;6275256;22;20015;-86
2023/07/13 01:09:07;;;;;;;5.05;1.83;;;24.80;93.60;;;;;;6276012;22;20444;-85
2023/07/13 01:11:34;;;;;;;4.50;1.90;;;24.80;93.40;;;;;;6276106;22;20023;-85
2023/07/13 01:14:03;;;;;;;5.22;2.13;;;24.90;93.30;;;;;;6275518;22;20038;-86
2023/07/13 01:16:32;;;;;;;4.75;2.10;;;24.90;93.40;;;;;;6250849;22;20027;-85
2023/07/13 01:19:01;;;;;;;3.90;1.98;;;24.90;93.50;;;;;;6275871;22;20755;-85
2023/07/13 01:21:32;;;;;;;5.05;1.95;;;24.90;93.50;;;;;;6250697;22;20023;-84
2023/07/13 01:23:59;;;;;;;3.20;1.92;;;24.90;93.30;;;;;;6276200;22;20024;-85
2023/07/13 01:26:27;;;;;;;3.50;2.22;;;24.80;93.40;;;;;;6249980;22;20106;-86
2023/07/13 01:28:56;;;;;;;4.38;2.30;;;24.80;93.40;;;;;;6276257;22;20027;-87
2023/07/13 01:31:23;;;;;;;6.10;2.65;;;24.90;93.60;;;;;;6276308;22;20023;-86
2023/07/13 01:33:51;;;;;;;3.58;2.08;;;24.80;93.40;;;;;;6249713;22;20028;-86
2023/07/13 01:36:21;;;;;;;2.90;1.80;;;24.80;93.50;;;;;;6274558;22;20050;-86
2023/07/13 01:38:48;;;;;;;7.75;1.90;;;24.70;93.60;;;;;;6275695;22;20026;-84
2023/07/13 01:41:15;;;;;;;5.18;2.00;;;24.80;93.80;;;;;;6250814;22;20644;-86
2023/07/13 01:43:42;;;;;;;5.10;2.22;;;24.70;93.50;;;;;;6250117;22;20020;-85
2023/07/13 01:46:10;;;;;;;3.75;2.17;;;24.70;94.00;;;;;;6275945;22;20027;-86
2023/07/13 01:48:50;;;;;;;5.97;2.47;;;24.70;93.70;;;;;;6276100;22;20351;-85
2023/07/13 01:51:19;;;;;;;4.18;2.03;;;24.70;93.70;;;;;;6275292;22;20497;-85
2023/07/13 01:53:46;;;;;;;6.60;2.22;;;24.60;93.60;;;;;;6249760;22;20466;-84
2023/07/13 01:56:14;;;;;;;6.65;2.20;;;24.50;93.90;;;;;;6275318;22;20028;-85
2023/07/13 01:58:41;;;;;;;7.32;2.15;;;24.50;94.20;;;;;;6249928;22;20023;-85
2023/07/13 02:01:08;;;;;;;3.83;1.92;;;24.50;94.40;;;;;;6250332;22;20058;-84
2023/07/13 02:03:37;;;;;;;4.22;1.92;;;24.50;94.40;;;;;;6226641;22;20394;-84
2023/07/13 02:06:04;;;;;;;3.20;2.10;;;24.50;94.50;;;;;;6276059;22;20027;-85
2023/07/13 02:08:33;;;;;;;5.38;1.85;;;24.50;94.60;;;;;;6276740;22;20019;-86
2023/07/13 02:11:02;;;;;;;7.07;2.47;;;24.40;94.90;;;;;;6250615;22;20061;-86
2023/07/13 02:13:30;;;;;;;6.30;2.67;;;24.40;95.20;;;;;;6275774;22;20034;-85
2023/07/13 02:15:57;;;;;;;5.43;2.00;;;24.40;95.20;;;;;;6275031;22;20019;-85
2023/07/13 02:18:24;;;;;;;5.68;2.13;;;24.40;95.30;;;;;;6274632;22;20103;-87
2023/07/13 02:20:51;;;;;;;5.75;2.05;;;24.40;95.40;;;;;;6249903;22;20624;-86
2023/07/13 02:23:19;;;;;;;5.93;2.97;;;24.40;95.60;;;;;;6277910;22;20235;-86
2023/07/13 02:25:46;;;;;;;8.55;3.13;;;24.40;95.60;;;;;;6251523;22;20020;-86
2023/07/13 02:28:15;;;;;;;4.93;2.20;;;24.40;95.60;;;;;;6251229;22;20035;-86
2023/07/13 02:30:42;;;;;;;6.82;2.60;;;24.10;96.00;;;;;;6250005;22;20015;-86
2023/07/13 02:33:09;;;;;;;5.78;2.05;;;24.20;96.30;;;;;;6274474;22;20038;-85
2023/07/13 02:35:37;;;;;;;6.22;2.97;;;24.30;96.60;;;;;;6249711;22;20023;-86
2023/07/13 02:38:04;;;;;;;4.40;2.30;;;24.30;96.70;;;;;;6276121;22;20039;-86
2023/07/13 02:40:33;;;;;;;3.60;2.08;;;24.30;96.60;;;;;;6250041;22;20459;-86
2023/07/13 02:43:00;;;;;;;5.85;2.80;;;24.30;96.70;;;;;;6275360;22;20023;-86
2023/07/13 02:45:27;;;;;;;5.13;2.72;;;24.20;96.70;;;;;;6250236;22;20020;-85
2023/07/13 02:47:54;;;;;;;4.25;2.20;;;24.20;96.80;;;;;;6275400;22;20020;-86
2023/07/13 02:50:22;;;;;;;5.70;2.67;;;24.20;97.00;;;;;;6249966;22;20023;-86
2023/07/13 02:52:49;;;;;;;4.47;2.40;;;24.10;97.10;;;;;;6250353;22;20607;-86
2023/07/13 02:55:16;;;;;;;5.50;2.38;;;24.10;97.20;;;;;;6275674;22;20106;-85
2023/07/13 02:57:43;;;;;;;5.22;2.20;;;24.00;97.50;;;;;;6276037;22;20093;-86
2023/07/13 03:00:11;;;;;;;4.53;2.45;;;24.10;97.90;;;;;;6275499;22;20022;-86
2023/07/13 03:02:39;;;;;;;6.30;2.45;;;24.10;97.90;;;;;;6275978;22;20106;-86
2023/07/13 03:05:07;;;;;;;3.40;2.10;;;24.00;98.20;;;;;;6276445;22;20019;-85
2023/07/13 03:07:34;;;;;;;7.28;2.50;;;24.00;98.00;;;;;;6276203;22;20039;-86
2023/07/13 03:10:04;;;;;;;7.03;2.85;;;24.00;98.60;;;;;;6250115;22;20454;-86
2023/07/13 03:12:40;;;;;;;5.30;3.10;;;24.00;98.40;;;;;;6275858;22;20107;-85
2023/07/13 03:15:13;;;;;;;4.68;2.55;;;23.90;98.50;;;;;;6275805;22;20027;-86
2023/07/13 03:17:43;;;;;;;8.98;3.63;;;23.90;98.60;;;;;;6277032;22;20039;-85
2023/07/13 03:20:10;;;;;;;7.18;2.60;;;23.80;98.80;;;;;;6252854;22;20047;-86
2023/07/13 03:22:37;;;;;;;4.15;2.58;;;23.70;99.30;;;;;;6275976;22;20046;-86
2023/07/13 03:25:05;;;;;;;3.67;2.63;;;23.80;99.50;;;;;;6250711;22;20023;-86
2023/07/13 03:27:32;;;;;;;7.38;2.60;;;23.80;99.50;;;;;;6275555;22;20066;-87
2023/07/13 03:29:59;;;;;;;6.07;3.13;;;23.80;99.40;;;;;;6276799;22;20070;-87
2023/07/13 03:32:27;;;;;;;5.40;3.03;;;23.90;99.40;;;;;;6253881;22;20019;-84
2023/07/13 03:34:54;;;;;;;4.10;2.53;;;23.80;99.50;;;;;;6276583;22;20038;-84
2023/07/13 03:37:22;;;;;;;8.10;2.83;;;23.80;99.90;;;;;;6251981;22;20126;-84
2023/07/13 03:39:49;;;;;;;8.35;2.35;;;23.80;99.90;;;;;;6200102;22;20294;-84
2023/07/13 03:42:19;;;;;;;4.97;2.30;;;23.80;99.90;;;;;;6252932;22;20218;-85
2023/07/13 03:44:52;;;;;;;6.03;2.53;;;23.90;99.90;;;;;;6225101;22;20103;-85
2023/07/13 03:47:19;;;;;;;4.05;2.40;;;24.00;99.90;;;;;;6275506;22;20027;-85
2023/07/13 03:49:47;;;;;;;5.60;2.72;;;24.00;99.80;;;;;;6275358;22;20065;-86
2023/07/13 03:52:14;;;;;;;4.40;2.88;;;24.10;99.80;;;;;;6274929;22;20023;-84
2023/07/13 03:54:42;;;;;;;5.85;2.70;;;24.10;99.90;;;;;;6275763;22;20042;-86
2023/07/13 03:57:09;;;;;;;5.50;2.67;;;24.20;99.70;;;;;;6277192;22;20020;-86
2023/07/13 03:59:36;;;;;;;4.30;2.33;;;24.20;99.90;;;;;;6275380;22;20084;-85
2023/07/13 04:02:04;;;;;;;7.30;3.15;;;24.10;99.90;;;;;;6274677;22;20020;-84
2023/07/13 04:04:33;;;;;;;4.10;2.55;;;24.20;99.90;;;;;;6274328;22;20020;-86
2023/07/13 04:07:01;;;;;;;5.93;2.58;;;24.30;99.70;;;;;;6248565;22;20114;-85
2023/07/13 04:09:28;;;;;;;3.97;1.98;;;24.30;99.50;;;;;;6225998;22;20024;-86
2023/07/13 04:11:55;;;;;;;7.45;3.10;;;24.30;99.50;;;;;;6251477;22;20043;-87
2023/07/13 04:14:22;;;;;;;4.65;2.33;;;24.30;99.20;;;;;;6277445;22;20034;-85
2023/07/13 04:16:49;;;;;;;3.55;2.05;;;24.30;99.40;;;;;;6251148;22;20247;-86
2023/07/13 04:19:17;;;;;;;4.88;2.42;;;24.30;99.50;;;;;;6275558;22;20019;-85
2023/07/13 04:21:45;;;;;;;5.97;2.25;;;24.30;99.40;;;;;;6275590;22;20051;-86
2023/07/13 04:24:12;;;;;;;6.15;2.70;;;24.30;98.90;;;;;;6275373;22;20016;-85
2023/07/13 04:26:39;;;;;;;5.82;2.55;;;24.20;99.00;;;;;;6276162;22;20020;-85
2023/07/13 04:29:07;;;;;;;9.15;2.67;;;24.20;98.60;;;;;;6276360;22;20031;-85
2023/07/13 04:31:34;;;;;;;6.40;2.00;;;24.10;99.10;;;;;;6275453;22;20402;-85
2023/07/13 04:34:02;;;;;;;7.75;3.67;;;24.20;99.50;;;;;;6277055;22;20447;-86
2023/07/13 04:36:30;;;;;;;9.27;3.50;;;24.10;99.40;;;;;;6276423;22;20032;-85
2023/07/13 04:38:57;;;;;;;6.80;2.10;;;24.10;99.70;;;;;;6275962;22;20016;-85
2023/07/13 04:41:24;;;;;;;8.07;3.63;;;23.90;99.90;;;;;;6275692;22;20443;-86
2023/07/13 04:43:51;;;;;;;11.65;2.75;;;24.00;99.90;;;;;;6275458;22;20027;-86
2023/07/13 04:46:21;;;;;;;8.10;2.13;;;24.10;99.90;;;;;;6250698;22;20058;-85
2023/07/13 04:48:50;;;;;;;9.00;2.30;;;24.10;99.90;;;;;;6250955;22;20062;-86
2023/07/13 04:51:18;;;;;;;9.27;2.47;;;24.10;99.90;;;;;;6250575;22;20020;-86
2023/07/13 04:53:45;;;;;;;9.05;2.55;;;24.10;99.90;;;;;;6275562;22;20065;-85
2023/07/13 04:56:12;;;;;;;7.03;2.33;;;24.10;99.90;;;;;;6275352;22;20023;-86
2023/07/13 04:58:40;;;;;;;14.20;3.50;;;24.00;99.90;;;;;;6249379;22;20073;-85
2023/07/13 05:01:08;;;;;;;7.03;2.72;;;24.00;99.90;;;;;;6273908;22;20020;-86
2023/07/13 05:03:36;;;;;;;7.10;2.95;;;24.00;99.90;;;;;;6276980;22;20411;-84
2023/07/13 05:06:06;;;;;;;6.18;3.00;;;24.00;99.90;;;;;;6275812;22;20629;-84
2023/07/13 05:08:34;;;;;;;8.60;2.72;;;23.90;99.90;;;;;;6275288;22;20020;-85
2023/07/13 05:11:03;;;;;;;7.05;2.20;;;23.80;99.90;;;;;;6276422;22;20069;-85
2023/07/13 05:13:30;;;;;;;5.18;2.58;;;23.80;99.90;;;;;;6278011;22;20035;-86
2023/07/13 05:16:03;;;;;;;6.47;2.92;;;23.80;99.90;;;;;;6252060;22;20097;-87
2023/07/13 05:18:30;;;;;;;7.85;2.50;;;23.70;99.90;;;;;;6250563;22;20514;-86
2023/07/13 05:20:59;;;;;;;9.57;2.90;;;23.70;99.90;;;;;;6249366;22;20036;-84
2023/07/13 05:23:26;;;;;;;4.90;2.03;;;23.60;99.90;;;;;;6274836;22;20447;-82
2023/07/13 05:25:54;;;;;;;4.20;2.05;;;23.30;99.90;;;;;;6275497;22;20028;-84
2023/07/13 05:28:21;;;;;;;3.78;1.40;;;23.10;99.90;;;;;;6272976;22;20028;-77
2023/07/13 05:30:49;;;;;;;5.22;1.73;;;22.70;99.90;;;;;;6247949;22;20063;-76
2023/07/13 05:33:16;;;;;;;7.20;1.92;;;22.40;99.90;;;;;;6273574;22;20023;-78
2023/07/13 05:35:44;;;;;;;3.63;1.42;;;22.10;99.90;;;;;;6247183;22;20114;-79
2023/07/13 05:38:11;;;;;;;6.72;2.38;;;22.30;99.90;;;;;;6248479;22;20016;-78
2023/07/13 05:40:38;;;;;;;4.20;1.55;;;22.30;99.90;;;;;;6247837;22;20020;-78
2023/07/13 05:43:05;;;;;;;6.50;1.52;;;22.10;99.90;;;;;;6274254;22;20070;-78
2023/07/13 05:45:32;;;;;;;4.20;1.52;;;22.10;99.90;;;;;;6273346;22;20019;-78
2023/07/13 05:47:59;;;;;;;5.15;1.52;;;22.30;99.90;;;;;;6247613;22;20066;-78
2023/07/13 05:50:27;;;;;;;5.22;1.65;;;22.20;99.90;;;;;;6272505;22;20020;-79
2023/07/13 05:52:54;;;;;;;4.07;1.45;;;21.90;99.90;;;;;;6247246;22;20023;-78
2023/07/13 05:55:21;;;;;;;4.07;1.77;;;21.80;99.90;;;;;;6273720;22;20020;-78
2023/07/13 05:57:48;;;;;;;4.18;1.50;;;21.70;99.90;;;;;;6274305;22;20073;-76
2023/07/13 06:00:16;;;;;;;2.50;1.00;;;21.50;99.90;;;;;;6247708;22;20022;-77
2023/07/13 06:02:43;;;;;;;1.92;0.75;;;21.20;99.90;;;;;;6273196;22;20015;-77
2023/07/13 06:05:10;;;;;;;2.13;1.15;;;21.20;99.90;;;;;;6245378;22;20530;-75
2023/07/13 06:07:38;;;;;;;3.55;1.10;;;21.20;99.90;;;;;;6267765;22;20011;-75
2023/07/13 06:10:05;;;;;;;2.90;1.13;;;21.10;99.90;;;;;;6271203;22;20023;-77
2023/07/13 06:12:32;;;;;;;2.40;0.90;;;21.10;99.90;;;;;;6246904;22;20024;-78
2023/07/13 06:15:00;;;;;;;3.15;1.10;;;21.00;99.90;;;;;;6271849;22;20091;-76
2023/07/13 06:17:27;;;;;;;1.40;0.73;;;20.90;99.90;;;;;;6243971;22;20031;-77
2023/07/13 06:19:54;;;;;;;1.85;0.68;;;20.90;99.90;;;;;;6268743;22;20063;-75
2023/07/13 06:22:21;;;;;;;1.10;0.80;;;20.90;99.90;;;;;;6269858;22;20702;-75
2023/07/13 06:24:48;;;;;;;1.85;0.50;;;20.90;99.90;;;;;;6269009;22;20024;-75
2023/07/13 06:27:15;;;;;;;1.50;0.50;;;21.00;99.90;;;;;;6267809;22;20026;-76
2023/07/13 06:29:44;;;;;;;2.97;0.85;;;20.90;99.90;;;;;;6268115;22;20418;-76
2023/07/13 06:32:12;;;;;;;1.20;0.55;;;20.70;99.90;;;;;;6270281;22;20019;-76
2023/07/13 06:34:39;;;;;;;2.55;0.77;;;20.60;99.90;;;;;;6269973;22;20024;-77
2023/07/13 06:37:09;;;;;;;2.15;0.82;;;20.50;99.90;;;;;;6271330;22;20026;-76
2023/07/13 06:39:37;;;;;;;1.83;0.63;;;20.40;99.90;;;;;;6247001;22;20525;-76
2023/07/13 06:42:05;;;;;;;5.38;1.13;;;20.50;99.90;;;;;;6247101;22;20085;-76
2023/07/13 06:44:32;;;;;;;1.70;0.80;;;20.60;99.90;;;;;;6271739;22;20060;-76
2023/07/13 06:46:59;;;;;;;2.90;1.10;;;20.70;99.90;;;;;;6247025;22;20023;-76
2023/07/13 06:49:26;;;;;;;3.20;0.60;;;20.80;99.90;;;;;;6246950;22;20051;-78
2023/07/13 06:51:53;;;;;;;2.17;0.60;;;20.80;99.90;;;;;;6265520;22;20097;-76
2023/07/13 06:54:20;;;;;;;3.17;0.68;;;20.80;99.90;;;;;;6273125;22;20379;-77
2023/07/13 06:56:47;;;;;;;1.73;0.70;;;21.00;99.90;;;;;;6243945;22;20027;-76
2023/07/13 06:59:14;;;;;;;2.45;0.50;;;21.10;99.90;;;;;;6269926;22;20015;-78
2023/07/13 07:01:41;;;;;;;2.03;0.70;;;21.30;99.90;;;;;;6247621;22;20020;-77
2023/07/13 07:04:09;;;;;;;3.25;1.15;;;21.40;99.90;;;;;;6270323;22;20016;-76
2023/07/13 07:06:36;;;;;;;1.23;0.68;;;21.40;99.90;;;;;;6272210;22;20106;-77
2023/07/13 07:09:03;;;;;;;1.60;0.40;;;21.40;99.90;;;;;;6272855;22;20031;-77
2023/07/13 07:11:30;;;;;;;1.75;0.52;;;21.70;99.90;;;;;;6246740;22;20030;-77
2023/07/13 07:13:57;;;;;;;2.30;0.60;;;21.80;99.90;;;;;;6246296;22;20110;-79
2023/07/13 07:16:24;;;;;;;2.00;0.60;;;22.20;99.90;;;;;;6267246;22;20477;-79
2023/07/13 07:18:52;;;;;;;2.22;1.83;;;22.50;99.90;;;;;;6270206;22;20762;-79
2023/07/13 07:21:19;;;;;;;2.33;0.47;;;23.00;99.90;;;;;;6272513;22;20047;-79
2023/07/13 07:23:46;;;;;;;2.00;0.57;;;23.20;99.90;;;;;;6270724;22;20039;-79
2023/07/13 07:26:14;;;;;;;1.75;1.15;;;23.40;99.90;;;;;;6246091;22;20020;-79
2023/07/13 07:28:41;;;;;;;1.30;0.60;;;23.40;99.90;;;;;;6271996;22;20019;-79
2023/07/13 07:31:14;;;;;;;1.40;0.50;;;23.40;99.90;;;;;;6272000;22;20093;-78
2023/07/13 07:33:44;;;;;;;1.52;0.65;;;23.40;99.90;;;;;;6272090;22;20026;-78
2023/07/13 07:36:11;;;;;;;1.45;0.70;;;23.50;99.90;;;;;;6268965;22;20110;-77
2023/07/13 07:38:42;;;;;;;1.45;0.75;;;23.90;99.90;;;;;;6269696;22;20030;-76
2023/07/13 07:41:10;;;;;;;2.33;0.63;;;23.50;99.90;;;;;;6270319;22;20020;-76
2023/07/13 07:43:40;;;;;;;2.03;0.95;;;23.60;99.90;;;;;;6271072;22;20019;-77
2023/07/13 07:46:07;;;;;;;2.30;0.52;;;23.80;99.90;;;;;;6269413;22;20089;-77
2023/07/13 07:48:34;;;;;;;2.60;0.70;;;24.10;99.90;;;;;;6245301;22;20020;-77
2023/07/13 07:51:02;;;;;;;3.20;1.35;;;24.50;99.90;;;;;;6271700;22;20081;-79
2023/07/13 07:53:29;;;;;;;1.90;0.82;;;24.60;99.90;;;;;;6273595;22;20027;-78
2023/07/13 07:56:00;;;;;;;2.20;0.80;;;24.50;99.90;;;;;;6245357;22;20046;-78
2023/07/13 07:58:47;;;;;;;1.55;0.90;;;24.40;99.90;;;;;;6270899;22;20034;-77
2023/07/13 08:01:17;;;;;;;2.53;1.15;;;24.30;99.90;;;;;;6269061;22;20015;-77
2023/07/13 08:03:47;;;;;;;3.15;1.13;;;24.40;99.90;;;;;;6271914;22;20041;-79
2023/07/13 08:06:19;;;;;;;1.95;0.75;;;24.40;99.90;;;;;;6271029;22;20015;-78
2023/07/13 08:08:50;;;;;;;1.83;0.80;;;24.50;99.90;;;;;;6271758;22;20016;-77
2023/07/13 08:11:18;;;;;;;1.67;0.70;;;24.30;99.90;;;;;;6273835;22;20899;-79
2023/07/13 08:13:49;;;;;;;2.95;1.55;;;24.10;99.90;;;;;;6243018;22;20027;-79
2023/07/13 08:16:19;;;;;;;2.50;0.80;;;24.30;99.90;;;;;;6271380;22;20039;-78
2023/07/13 08:18:46;;;;;;;3.25;1.30;;;24.40;99.90;;;;;;6270833;22;20023;-79
2023/07/13 08:21:13;;;;;;;1.92;0.80;;;24.50;99.90;;;;;;6271387;22;20015;-80
2023/07/13 08:23:40;;;;;;;2.45;1.17;;;24.50;99.90;;;;;;6270915;22;20019;-78
2023/07/13 08:26:09;;;;;;;1.75;1.00;;;24.60;99.90;;;;;;6271519;22;20351;-78
2023/07/13 08:28:36;;;;;;;1.60;0.90;;;24.60;99.90;;;;;;6272551;22;20016;-78
2023/07/13 08:31:06;;;;;;;1.52;0.77;;;24.50;99.90;;;;;;6270670;22;20767;-78
2023/07/13 08:33:35;;;;;;;2.35;1.17;;;24.60;99.90;;;;;;6246831;22;20102;-78
2023/07/13 08:36:03;;;;;;;3.22;1.50;;;25.10;99.40;;;;;;6274261;22;20020;-80
2023/07/13 08:38:30;;;;;;;3.75;0.90;;;25.40;99.60;;;;;;6271883;22;20069;-79
2023/07/13 08:40:57;;;;;;;3.10;1.20;;;25.50;97.70;;;;;;6271859;22;20102;-79
2023/07/13 08:43:37;;;;;;;1.65;1.00;;;25.80;97.70;;;;;;6272789;22;20015;-79
2023/07/13 08:46:24;;;;;;;1.70;0.80;;;26.00;97.70;;;;;;6272174;22;20099;-79
2023/07/13 08:49:10;;;;;;;1.98;0.90;;;25.90;94.30;;;;;;6271764;22;20020;-79
2023/07/13 08:51:40;;;;;;;;;;;26.10;95.80;;;;;;6269528;22;20062;-81
2023/07/13 08:54:19;;;;;;;1.83;1.00;;;26.20;94.40;;;;;;6274448;22;19919;-79
2023/07/13 08:56:48;;;;;;;1.58;0.82;;;26.20;94.80;;;;;;6273667;22;20063;-79
2023/07/13 08:59:18;;;;;;;2.20;1.00;;;26.40;95.50;;;;;;6272812;22;20026;-79
2023/07/13 09:02:12;;;;;;;3.03;0.95;;;26.50;95.20;;;;;;6274663;22;20015;-79
2023/07/13 09:05:02;;;;;;;2.70;1.13;;;26.60;95.50;;;;;;6236159;22;20019;-79
2023/07/13 09:07:44;;;;;;;2.63;1.27;;;26.70;97.00;;;;;;6272894;22;20019;-78
2023/07/13 09:10:21;;;;;;;2.22;1.20;;;26.80;95.30;;;;;;6273818;22;20016;-78
2023/07/13 09:13:09;;;;;;;3.17;1.17;;;26.80;95.00;;;;;;6247957;22;20023;-77
2023/07/13 09:15:43;;;;;;;3.20;1.02;;;26.80;93.40;;;;;;6267544;22;20027;-79
2023/07/13 09:18:37;;;;;;;2.60;0.90;;;26.90;92.80;;;;;;6267900;22;20077;-80
2023/07/13 09:21:16;;;;;;;2.60;0.95;;;26.90;92.80;;;;;;6241300;22;20073;-80
2023/07/13 09:23:43;;;;;;;5.75;1.20;;;26.90;93.10;;;;;;6273926;22;20079;-80
2023/07/13 09:26:18;;;;;;;6.93;2.42;;;27.10;94.20;;;;;;6275863;22;20043;-80
2023/07/13 09:28:48;;;;;;;2.15;1.00;;;27.10;92.40;;;;;;6273241;22;20027;-79
2023/07/13 09:31:21;;;;;;;4.78;1.13;;;27.10;91.70;;;;;;6274811;22;20070;-80
2023/07/13 09:33:50;;;;;;;5.50;1.40;;;27.20;92.00;;;;;;6267573;22;20043;-80
2023/07/13 09:36:19;;;;;;;2.17;1.08;;;27.20;91.40;;;;;;6273593;22;20034;-79
2023/07/13 09:38:49;;;;;;;1.77;0.85;;;27.30;92.20;;;;;;6272248;22;20091;-80
2023/07/13 09:41:46;;;;;;;1.30;0.90;;;27.40;92.20;;;;;;6272967;22;20012;-80
2023/07/13 09:44:16;;;;;;;1.92;1.30;;;27.40;91.10;;;;;;6274115;22;20019;-80
2023/07/13 09:46:52;;;;;;;2.22;1.00;;;27.40;91.10;;;;;;6269124;22;20053;-80
2023/07/13 09:49:25;;;;;;;2.92;1.02;;;27.40;90.70;;;;;;6273678;22;20459;-79
2023/07/13 09:52:10;;;;;;;1.45;0.90;;;27.30;90.70;;;;;;6275658;22;20031;-80
2023/07/13 09:54:38;;;;;;;3.67;1.42;;;27.50;90.60;;;;;;6249015;22;20028;-80
2023/07/13 09:57:22;;;;;;;2.45;1.20;;;27.60;90.50;;;;;;6245517;22;20477;-79
2023/07/13 10:00:00;;;;;;;3.30;1.05;;;27.50;91.20;;;;;;6273906;22;20031;-80
2023/07/13 10:02:36;;;;;;;3.13;1.20;;;27.10;91.20;;;;;;6275734;22;20028;-80
2023/07/13 10:05:07;;;;;;;3.72;1.10;;;26.90;90.90;;;;;;6247099;22;20775;-80
2023/07/13 10:07:40;;;;;;;3.58;1.17;;;26.60;90.50;;;;;;6275790;22;20340;-80
2023/07/13 10:10:22;;;;;;;1.63;1.15;;;26.40;90.60;;;;;;6273510;22;20103;-79
2023/07/13 10:12:50;;;;;;;;;;;26.40;91.00;;;;;;6274161;22;20028;-78
2023/07/13 10:15:25;;;;;;;2.92;1.13;;;26.30;91.30;;;;;;6270973;22;20010;-81
2023/07/13 10:17:55;;;;;;;3.80;1.40;;;26.20;90.90;;;;;;6269901;22;20023;-80
2023/07/13 10:20:23;;;;;;;1.95;1.10;;;26.20;91.40;;;;;;6271393;22;20455;-80
2023/07/13 10:23:09;;;;;;;4.50;1.35;;;26.30;91.40;;;;;;6246032;22;20490;-82
2023/07/13 10:25:41;;;;;;;1.42;1.15;;;26.30;90.50;;;;;;6269509;22;20016;-81
2023/07/13 10:28:31;;;;;;;2.95;1.50;;;26.20;90.50;;;;;;6272308;22;20008;-79
2023/07/13 10:31:00;;;;;;;2.60;1.35;;;26.50;90.50;;;;;;6270952;22;20447;-77
2023/07/13 10:33:27;;;;;;;3.38;1.80;;;26.50;90.60;;;;;;6272637;22;20784;-78
2023/07/13 10:36:22;;;;;;;2.33;1.65;;;26.40;91.10;;;;;;6271688;22;20023;-78
2023/07/13 10:38:51;;;;;;;5.25;1.60;;;26.30;90.60;;;;;;6268370;22;20025;-78
2023/07/13 10:41:22;;;;;;;2.30;1.20;;;26.40;90.70;;;;;;6270194;22;20647;-78
2023/07/13 10:43:53;;;;;;;2.40;1.50;;;26.50;90.80;;;;;;6245232;22;20070;-77
2023/07/13 10:46:23;;;;;;;1.88;1.00;;;26.50;90.70;;;;;;6270451;22;20404;-78
2023/07/13 10:48:56;;;;;;;3.72;1.33;;;26.50;90.70;;;;;;6246181;22;20398;-79
2023/07/13 10:51:24;;;;;;;2.33;0.80;;;26.60;90.70;;;;;;6270039;22;20073;-79
2023/07/13 10:54:09;;;;;;;3.03;1.33;;;26.90;90.50;;;;;;6270101;22;20027;-79
2023/07/13 10:56:41;;;;;;;3.42;1.35;;;27.00;89.20;;;;;;6269275;22;20020;-77
2023/07/13 10:59:28;;;;;;;2.83;1.02;;;27.00;89.80;;;;;;6269887;22;20024;-80
2023/07/13 11:02:11;;;;;;;2.22;0.82;;;27.30;88.10;;;;;;6272481;22;20019;-79
2023/07/13 11:04:49;;;;;;;1.90;0.93;;;27.30;87.80;;;;;;6272306;22;20026;-80
2023/07/13 11:07:25;;;;;;;2.13;1.00;;;27.50;88.30;;;;;;6268863;22;20406;-79
2023/07/13 11:09:56;;;;;;;1.80;0.82;;;27.50;83.40;;;;;;6270853;22;20077;-78
2023/07/13 11:12:24;;;;;;;2.58;0.90;;;27.60;84.30;;;;;;6270088;22;20050;-79
2023/07/13 11:14:54;;;;;;;1.20;0.85;;;27.60;84.40;;;;;;6271807;22;20019;-78
2023/07/13 11:17:27;;;;;;;2.42;1.00;;;27.70;84.20;;;;;;6271686;22;20020;-78
2023/07/13 11:20:11;;;;;;;2.10;0.95;;;27.80;83.80;;;;;;6270554;22;20050;-80
2023/07/13 11:22:49;;;;;;;1.70;0.73;;;27.90;84.20;;;;;;6271325;22;20093;-80
2023/07/13 11:25:29;;;;;;;2.08;1.10;;;27.90;82.80;;;;;;6269429;22;20430;-80
2023/07/13 11:28:11;;;;;;;2.28;1.00;;;28.00;82.90;;;;;;6270007;22;20019;-80
2023/07/13 11:30:43;;;;;;;1.48;0.75;;;28.00;83.60;;;;;;6271702;22;20039;-81
2023/07/13 11:33:22;;;;;;;;;;;28.10;83.40;;;;;;6242691;22;20360;-80
2023/07/13 11:36:13;;;;;;;2.05;0.75;;;28.10;80.70;;;;;;6272949;22;19915;-80
2023/07/13 11:39:05;;;;;;;1.88;0.43;;;28.10;81.60;;;;;;6272287;22;20107;-80
2023/07/13 11:41:38;;;;;;;;;;;28.10;80.60;;;;;;6231643;22;20027;-79
2023/07/13 11:44:11;;;;;;;1.38;0.70;;;28.10;78.40;;;;;;6274836;22;19947;-79
2023/07/13 11:46:38;;;;;;;1.10;0.45;;;28.10;79.20;;;;;;6272306;22;20778;-78
2023/07/13 11:49:07;;;;;;;1.73;0.68;;;28.20;78.70;;;;;;6275317;22;20046;-79
2023/07/13 11:51:36;;;;;;;1.30;0.45;;;28.10;79.40;;;;;;6272920;22;20020;-80
2023/07/13 11:54:26;;;;;;;0.90;0.40;;;28.10;79.90;;;;;;6270517;22;20328;-80
2023/07/13 11:57:01;;;;;;;1.15;0.50;;;28.10;80.70;;;;;;6272047;22;20024;-78
2023/07/13 11:59:30;;;;;;;3.65;1.02;;;28.00;79.30;;;;;;6273527;22;20114;-80
2023/07/13 12:01:58;;;;;;;0.73;0.40;;;28.00;78.00;;;;;;6273171;22;20634;-78
2023/07/13 12:04:28;;;;;;;1.65;0.63;;;28.10;79.10;;;;;;6269831;22;20440;-80
2023/07/13 12:06:58;;;;;;;1.27;0.60;;;28.00;77.70;;;;;;6274021;22;20012;-80
2023/07/13 12:09:27;;;;;;;1.58;0.50;;;28.10;80.80;;;;;;6273581;22;20085;-80
2023/07/13 12:11:57;;;;;;;1.48;0.55;;;28.10;78.20;;;;;;6247106;22;20047;-80
2023/07/13 12:14:26;;;;;;;1.77;1.38;;;28.20;80.40;;;;;;6247800;22;20062;-80
2023/07/13 12:16:54;;;;;;;3.42;0.63;;;28.20;78.90;;;;;;6273220;22;20035;-82
2023/07/13 12:19:25;;;;;;;1.23;0.55;;;28.30;80.80;;;;;;6271980;22;20023;-80
2023/07/13 12:21:55;;;;;;;1.25;0.60;;;28.40;79.60;;;;;;6272359;22;20020;-81
2023/07/13 12:24:23;;;;;;;1.50;0.70;;;28.40;78.30;;;;;;6245452;22;20015;-80
2023/07/13 12:27:01;;;;;;;1.73;0.60;;;28.30;77.70;;;;;;6275231;22;20019;-80
2023/07/13 12:29:28;;;;;;;1.25;0.60;;;28.30;78.00;;;;;;6270323;22;20011;-79
2023/07/13 12:31:55;;;;;;;1.40;0.65;;;28.30;78.50;;;;;;6272648;22;20035;-80
2023/07/13 12:34:25;;;;;;;1.90;0.63;;;28.40;76.10;;;;;;6248866;22;20055;-79
2023/07/13 12:36:59;;;;;;;1.42;0.73;;;28.30;76.00;;;;;;6273139;22;20023;-79
2023/07/13 12:39:45;;;;;;;1.42;0.60;;;28.20;78.00;;;;;;6247824;22;20815;-79
2023/07/13 12:42:28;;;;;;;1.55;0.47;;;28.30;76.50;;;;;;6273728;22;20436;-80
2023/07/13 12:45:19;;;;;;;1.10;0.50;;;28.30;75.80;;;;;;6273991;22;20468;-80
2023/07/13 12:47:55;;;;;;;1.17;0.63;;;28.30;76.80;;;;;;6273201;22;20313;-81
2023/07/13 12:50:28;;;;;;;2.42;0.60;;;28.40;75.00;;;;;;6274313;22;20019;-78
2023/07/13 12:53:03;;;;;;;1.25;0.50;;;28.40;75.90;;;;;;6248463;22;20066;-80
2023/07/13 12:55:33;;;;;;;1.80;0.77;;;28.40;77.30;;;;;;6271655;22;20027;-81
2023/07/13 12:58:04;;;;;;;3.63;0.63;;;28.50;76.40;;;;;;6272760;22;20027;-78
2023/07/13 13:00:37;;;;;;;0.95;0.65;;;28.40;76.60;;;;;;6274032;22;20090;-80
2023/07/13 13:03:20;;;;;;;1.63;0.60;;;28.50;77.00;;;;;;6268417;22;20069;-80
2023/07/13 13:06:19;;;;;;;4.38;0.80;;;28.50;75.90;;;;;;6273594;22;20058;-80